Time;durP1;ratioP1;P1;durP2;ratioP2;P2;SDS_P1;SDS_P2;PMS_P1;PMS_P2;Temp;Humidity;BMP_temperature;BMP_pressure;BME280_temperature;BME280_humidity;BME280_pressure;Samples;Min_cycle;Max_cycle;Signal;HPM_P1;HPM_P2
2021/06/10 00:00:13;;;;;;;6.72;2.38;;;;;;;;;;4980667;28;20043;-83
2021/06/10 00:02:38;;;;;;;5.20;2.50;;;;;;;;;;4965424;28;20193;-83
2021/06/10 00:05:08;;;;;;;7.15;2.83;;;;;;;;;;4962318;28;20040;-84
2021/06/10 00:07:34;;;;;;;4.53;2.67;;;;;;;;;;4977760;28;20007;-84
2021/06/10 00:09:59;;;;;;;4.90;2.25;;;;;;;;;;4961841;28;20015;-83
2021/06/10 00:12:24;;;;;;;4.88;2.60;;;;;;;;;;4960274;28;20027;-84
2021/06/10 00:14:50;;;;;;;7.55;2.90;;;;;;;;;;4978479;28;20038;-83
2021/06/10 00:17:15;;;;;;;7.57;3.20;;;;;;;;;;4978069;28;20047;-84
2021/06/10 00:19:41;;;;;;;5.60;2.67;;;;;;;;;;4961310;29;20051;-83
2021/06/10 00:22:06;;;;;;;8.27;2.70;;;;;;;;;;4958541;28;20008;-83
2021/06/10 00:24:32;;;;;;;7.00;2.90;;;;;;;;;;4941866;29;20111;-83
2021/06/10 00:26:57;;;;;;;5.80;3.10;;;;;;;;;;4957692;28;20003;-83
2021/06/10 00:29:22;;;;;;;8.57;3.08;;;;;;;;;;4962275;29;20046;-83
2021/06/10 00:31:48;;;;;;;7.10;3.63;;;;;;;;;;4962538;28;20014;-83
2021/06/10 00:34:14;;;;;;;7.95;3.53;;;;;;;;;;4946964;29;20024;-84
2021/06/10 00:36:40;;;;;;;5.55;3.63;;;;;;;;;;5209218;23;20039;-82
2021/06/10 00:39:06;;;;;;;6.80;3.55;;;;;;;;;;4985094;28;20074;-83
2021/06/10 00:41:32;;;;;;;7.35;3.60;;;;;;;;;;4982359;28;20045;-83
2021/06/10 00:43:59;;;;;;;8.38;3.75;;;;;;;;;;5000909;28;20057;-83
2021/06/10 00:46:25;;;;;;;11.25;3.63;;;;;;;;;;4982564;28;20017;-83
2021/06/10 00:48:50;;;;;;;9.20;4.03;;;;;;;;;;4983949;28;20003;-83
2021/06/10 00:51:16;;;;;;;8.43;4.18;;;;;;;;;;4983821;28;20026;-83
2021/06/10 00:53:41;;;;;;;10.23;4.43;;;;;;;;;;4984357;28;20007;-84
2021/06/10 00:56:07;;;;;;;8.55;4.10;;;;;;;;;;5000670;28;20011;-83
2021/06/10 00:58:32;;;;;;;7.65;4.20;;;;;;;;;;4982133;28;20027;-84
2021/06/10 01:00:58;;;;;;;8.23;3.85;;;;;;;;;;5000065;28;20095;-83
2021/06/10 01:03:24;;;;;;;11.43;4.07;;;;;;;;;;5001130;28;20018;-84
2021/06/10 01:05:52;;;;;;;8.30;4.40;;;;;;;;;;4998494;28;20038;-83
2021/06/10 01:08:23;;;;;;;7.10;4.05;;;;;;;;;;4964423;29;20023;-84
2021/06/10 01:11:08;;;;;;;10.32;4.80;;;;;;;;;;4964581;28;20046;-84
2021/06/10 01:13:39;;;;;;;8.32;5.13;;;;;;;;;;5000812;28;20059;-83
2021/06/10 01:16:06;;;;;;;8.00;4.32;;;;;;;;;;4983608;28;20066;-83
2021/06/10 01:18:32;;;;;;;8.25;4.88;;;;;;;;;;5000397;28;20019;-83
2021/06/10 01:20:57;;;;;;;8.68;4.55;;;;;;;;;;4998565;28;20022;-84
2021/06/10 01:23:29;;;;;;;11.20;5.30;;;;;;;;;;4983005;28;20132;-83
2021/06/10 01:26:03;;;;;;;9.48;5.50;;;;;;;;;;4998672;28;20063;-84
2021/06/10 01:28:33;;;;;;;9.55;5.30;;;;;;;;;;4983421;28;20050;-82
2021/06/10 01:31:01;;;;;;;10.88;6.47;;;;;;;;;;4998336;28;20019;-83
2021/06/10 01:33:46;;;;;;;10.43;6.25;;;;;;;;;;4983053;28;20050;-83
2021/06/10 01:36:17;;;;;;;13.35;6.47;;;;;;;;;;4979448;28;20030;-83
2021/06/10 01:38:48;;;;;;;16.83;6.93;;;;;;;;;;4981234;28;20075;-83
2021/06/10 01:41:14;;;;;;;12.07;6.82;;;;;;;;;;4980541;28;20014;-83
2021/06/10 01:43:41;;;;;;;15.90;7.43;;;;;;;;;;4982071;28;20030;-83
2021/06/10 01:46:06;;;;;;;11.73;8.10;;;;;;;;;;4981467;28;20042;-83
2021/06/10 01:48:32;;;;;;;9.88;7.85;;;;;;;;;;4999624;28;20078;-83
2021/06/10 01:50:59;;;;;;;15.25;7.93;;;;;;;;;;4981990;28;20017;-83
2021/06/10 01:53:25;;;;;;;16.52;8.13;;;;;;;;;;4980431;28;20025;-83
2021/06/10 01:55:50;;;;;;;12.43;7.88;;;;;;;;;;4982272;28;20023;-83
2021/06/10 01:58:16;;;;;;;12.65;8.57;;;;;;;;;;4981923;28;20013;-83
2021/06/10 02:00:42;;;;;;;14.60;9.40;;;;;;;;;;4981233;28;20022;-83
2021/06/10 02:03:09;;;;;;;14.30;9.90;;;;;;;;;;4981987;28;20054;-83
2021/06/10 02:05:36;;;;;;;14.77;10.63;;;;;;;;;;4982123;28;20019;-82
2021/06/10 02:08:02;;;;;;;16.27;10.30;;;;;;;;;;4966792;28;20047;-83
2021/06/10 02:10:28;;;;;;;17.33;10.50;;;;;;;;;;4979752;28;20003;-82
2021/06/10 02:12:54;;;;;;;17.98;10.38;;;;;;;;;;4981893;28;19999;-83
2021/06/10 02:15:20;;;;;;;13.57;10.23;;;;;;;;;;4979836;28;20026;-83
2021/06/10 02:17:47;;;;;;;18.23;10.38;;;;;;;;;;4981521;28;20050;-83
2021/06/10 02:20:14;;;;;;;15.15;11.50;;;;;;;;;;4980868;28;20030;-83
2021/06/10 02:22:39;;;;;;;16.58;11.98;;;;;;;;;;4995169;28;20030;-83
2021/06/10 02:25:07;;;;;;;14.45;12.00;;;;;;;;;;4981665;28;20098;-83
2021/06/10 02:27:32;;;;;;;17.60;11.52;;;;;;;;;;4981242;28;20047;-82
2021/06/10 02:29:58;;;;;;;16.63;11.52;;;;;;;;;;4975891;29;20027;-83
2021/06/10 02:32:23;;;;;;;19.65;12.35;;;;;;;;;;4978304;29;20027;-83
2021/06/10 02:34:49;;;;;;;18.60;12.00;;;;;;;;;;4966430;28;20783;-83
2021/06/10 02:37:17;;;;;;;22.15;12.85;;;;;;;;;;4977787;28;20058;-83
2021/06/10 02:39:43;;;;;;;20.73;12.90;;;;;;;;;;4993812;28;20047;-83
2021/06/10 02:42:12;;;;;;;16.52;12.48;;;;;;;;;;4996884;28;20009;-83
2021/06/10 02:44:39;;;;;;;17.70;12.27;;;;;;;;;;4980580;28;20027;-82
2021/06/10 02:47:05;;;;;;;18.05;11.90;;;;;;;;;;4980094;28;19995;-82
2021/06/10 02:49:34;;;;;;;15.27;11.15;;;;;;;;;;4997577;28;20050;-81
2021/06/10 02:51:59;;;;;;;18.15;11.68;;;;;;;;;;4996567;28;20051;-83
2021/06/10 02:54:26;;;;;;;20.23;11.68;;;;;;;;;;4980627;28;20034;-82
2021/06/10 02:56:52;;;;;;;15.15;10.55;;;;;;;;;;4979336;28;20027;-83
2021/06/10 02:59:18;;;;;;;15.57;11.63;;;;;;;;;;4997319;28;20038;-83
2021/06/10 03:01:44;;;;;;;15.73;12.02;;;;;;;;;;4980030;28;20049;-83
2021/06/10 03:04:12;;;;;;;18.80;12.35;;;;;;;;;;4997398;28;20034;-82
2021/06/10 03:06:37;;;;;;;18.73;12.77;;;;;;;;;;4995564;28;20018;-83
2021/06/10 03:09:04;;;;;;;15.07;11.73;;;;;;;;;;4997898;28;20026;-83
2021/06/10 03:11:29;;;;;;;18.15;11.88;;;;;;;;;;4997160;28;20034;-82
2021/06/10 03:13:55;;;;;;;18.25;12.48;;;;;;;;;;4980018;28;20023;-83
2021/06/10 03:16:20;;;;;;;20.80;13.32;;;;;;;;;;4996975;28;20007;-83
2021/06/10 03:18:46;;;;;;;21.42;12.80;;;;;;;;;;4998109;28;20006;-84
2021/06/10 03:21:11;;;;;;;17.55;12.80;;;;;;;;;;4978278;28;20023;-83
2021/06/10 03:23:37;;;;;;;17.42;12.07;;;;;;;;;;4998173;28;20050;-83
2021/06/10 03:26:03;;;;;;;18.85;13.63;;;;;;;;;;4995452;28;20015;-83
2021/06/10 03:28:29;;;;;;;18.27;13.93;;;;;;;;;;4997304;28;20038;-83
2021/06/10 03:30:54;;;;;;;14.63;12.38;;;;;;;;;;4996111;28;20082;-83
2021/06/10 03:33:22;;;;;;;20.35;14.13;;;;;;;;;;4980260;28;20026;-83
2021/06/10 03:35:48;;;;;;;15.45;12.70;;;;;;;;;;4997280;28;20050;-82
2021/06/10 03:38:14;;;;;;;17.13;13.23;;;;;;;;;;4980605;28;20019;-83
2021/06/10 03:40:41;;;;;;;21.20;13.80;;;;;;;;;;4996435;28;20011;-82
2021/06/10 03:43:07;;;;;;;20.92;14.65;;;;;;;;;;4980727;28;20099;-83
2021/06/10 03:45:33;;;;;;;19.13;14.13;;;;;;;;;;5334761;23;20059;-83
2021/06/10 03:47:58;;;;;;;18.77;13.27;;;;;;;;;;4977896;28;20012;-82
2021/06/10 03:50:29;;;;;;;22.02;12.43;;;;;;;;;;4969918;28;20015;-83
2021/06/10 03:52:54;;;;;;;19.20;12.32;;;;;;;;;;4959607;28;20477;-80
2021/06/10 03:55:20;;;;;;;15.63;11.80;;;;;;;;;;4974034;29;20016;-83
2021/06/10 03:57:45;;;;;;;16.65;11.52;;;;;;;;;;4972690;28;20038;-82
2021/06/10 04:00:11;;;;;;;16.50;12.05;;;;;;;;;;4972343;28;20033;-82
2021/06/10 04:02:37;;;;;;;15.82;11.75;;;;;;;;;;4977443;28;20042;-84
2021/06/10 04:05:03;;;;;;;17.73;11.18;;;;;;;;;;4970972;29;20023;-85
2021/06/10 04:07:29;;;;;;;16.65;12.80;;;;;;;;;;4979632;28;20005;-84
2021/06/10 04:09:55;;;;;;;21.23;13.68;;;;;;;;;;4977404;29;20010;-84
2021/06/10 04:12:20;;;;;;;19.52;13.45;;;;;;;;;;4977927;28;20104;-84
2021/06/10 04:14:46;;;;;;;19.85;13.20;;;;;;;;;;4982637;28;20000;-84
2021/06/10 04:19:44;;;;;;;15.35;12.68;;;;;;;;;;4936683;29;20064;-82
2021/06/10 04:22:10;;;;;;;19.55;13.77;;;;;;;;;;4939435;29;20036;-82
2021/06/10 04:24:35;;;;;;;16.50;12.75;;;;;;;;;;4941122;29;20031;-82
2021/06/10 04:27:01;;;;;;;19.10;13.48;;;;;;;;;;4941318;29;20020;-83
2021/06/10 04:29:27;;;;;;;15.05;12.02;;;;;;;;;;4940670;29;20019;-83
2021/06/10 04:31:53;;;;;;;16.77;11.68;;;;;;;;;;4941324;29;20033;-83
2021/06/10 04:34:18;;;;;;;14.57;11.50;;;;;;;;;;4942034;29;20036;-82
2021/06/10 04:36:43;;;;;;;21.48;11.15;;;;;;;;;;4941627;29;20020;-82
2021/06/10 04:39:09;;;;;;;18.05;11.73;;;;;;;;;;4942403;29;20059;-82
2021/06/10 04:41:34;;;;;;;15.88;10.60;;;;;;;;;;4942538;29;20026;-82
2021/06/10 04:43:59;;;;;;;17.02;9.75;;;;;;;;;;4942119;29;20048;-83
2021/06/10 04:46:24;;;;;;;13.18;10.15;;;;;;;;;;4938919;29;20008;-83
2021/06/10 04:48:50;;;;;;;13.15;9.38;;;;;;;;;;4942199;29;20016;-83
2021/06/10 04:51:15;;;;;;;14.32;9.95;;;;;;;;;;4932561;29;20013;-83
2021/06/10 04:53:42;;;;;;;13.57;9.88;;;;;;;;;;4943613;29;20087;-83
2021/06/10 04:56:07;;;;;;;18.33;9.05;;;;;;;;;;4935939;29;20001;-83
2021/06/10 04:58:32;;;;;;;14.13;9.30;;;;;;;;;;4924742;29;20039;-82
2021/06/10 05:00:58;;;;;;;12.90;9.57;;;;;;;;;;4942028;29;20394;-82
2021/06/10 05:03:23;;;;;;;13.65;8.88;;;;;;;;;;4940449;29;20096;-83
2021/06/10 05:05:49;;;;;;;10.05;8.00;;;;;;;;;;4924191;29;20040;-82
2021/06/10 05:08:14;;;;;;;12.30;8.73;;;;;;;;;;4940891;29;20016;-82
2021/06/10 05:10:40;;;;;;;12.45;8.95;;;;;;;;;;4940401;29;20012;-82
2021/06/10 05:13:05;;;;;;;14.90;9.68;;;;;;;;;;4939658;29;20083;-82
2021/06/10 05:15:30;;;;;;;14.40;9.63;;;;;;;;;;4940514;29;20020;-82
2021/06/10 05:17:55;;;;;;;19.05;10.02;;;;;;;;;;4938216;29;20036;-83
2021/06/10 05:20:21;;;;;;;18.17;10.90;;;;;;;;;;4920707;29;20074;-83
2021/06/10 05:22:46;;;;;;;14.68;9.80;;;;;;;;;;4938203;29;20016;-81
2021/06/10 05:25:11;;;;;;;14.93;10.13;;;;;;;;;;4939230;29;20100;-81
2021/06/10 05:27:37;;;;;;;12.35;9.63;;;;;;;;;;4939659;29;20008;-82
2021/06/10 05:30:06;;;;;;;12.88;9.32;;;;;;;;;;4940266;29;20044;-82
2021/06/10 05:32:31;;;;;;;12.65;9.30;;;;;;;;;;4939453;29;20076;-83
2021/06/10 05:34:57;;;;;;;16.50;9.77;;;;;;;;;;4924653;29;20032;-82
2021/06/10 05:37:22;;;;;;;16.05;10.25;;;;;;;;;;4938221;29;20019;-82
2021/06/10 05:39:48;;;;;;;17.38;10.95;;;;;;;;;;4939988;29;20020;-82
2021/06/10 05:42:14;;;;;;;13.85;9.73;;;;;;;;;;4939164;29;20016;-82
2021/06/10 05:44:39;;;;;;;16.98;11.05;;;;;;;;;;4940218;29;20043;-83
2021/06/10 05:47:04;;;;;;;17.50;12.00;;;;;;;;;;4940449;29;20032;-82
2021/06/10 05:49:30;;;;;;;17.27;11.82;;;;;;;;;;4940191;29;20004;-83
2021/06/10 05:51:55;;;;;;;18.40;13.05;;;;;;;;;;4942423;29;20052;-83
2021/06/10 05:54:20;;;;;;;15.38;12.15;;;;;;;;;;4925464;29;20004;-83
2021/06/10 05:56:45;;;;;;;19.25;13.43;;;;;;;;;;4942063;29;20012;-82
2021/06/10 05:59:11;;;;;;;15.77;12.35;;;;;;;;;;4942100;29;20022;-83
2021/06/10 06:01:36;;;;;;;19.30;13.00;;;;;;;;;;4942090;29;20028;-83
2021/06/10 06:04:01;;;;;;;18.67;13.20;;;;;;;;;;4939483;29;20032;-82
2021/06/10 06:06:27;;;;;;;22.17;13.77;;;;;;;;;;4940375;29;20047;-84
2021/06/10 06:08:52;;;;;;;20.58;12.50;;;;;;;;;;4939843;29;20000;-83
2021/06/10 06:11:18;;;;;;;16.20;12.70;;;;;;;;;;4930855;29;20039;-81
2021/06/10 06:16:10;;;;;;;16.25;12.65;;;;;;;;;;4923797;29;20036;-80
2021/06/10 06:18:35;;;;;;;17.27;13.30;;;;;;;;;;4908679;29;20430;-80
2021/06/10 06:21:00;;;;;;;17.83;12.43;;;;;;;;;;4923053;29;20095;-80
2021/06/10 06:23:28;;;;;;;19.02;13.80;;;;;;;;;;4920946;29;20028;-79
2021/06/10 06:25:53;;;;;;;19.55;13.00;;;;;;;;;;4925235;29;20020;-79
2021/06/10 06:28:19;;;;;;;18.85;14.23;;;;;;;;;;4904013;29;20032;-80
2021/06/10 06:30:44;;;;;;;18.02;14.38;;;;;;;;;;4931309;29;20024;-81
2021/06/10 06:33:09;;;;;;;17.90;14.30;;;;;;;;;;4929566;29;20060;-80
2021/06/10 06:35:34;;;;;;;17.55;14.32;;;;;;;;;;4932169;29;20275;-80
2021/06/10 06:38:00;;;;;;;17.75;13.25;;;;;;;;;;4925927;29;20044;-79
2021/06/10 06:40:26;;;;;;;19.83;14.07;;;;;;;;;;4923261;29;20039;-79
2021/06/10 06:42:52;;;;;;;18.35;13.80;;;;;;;;;;4921194;29;20118;-81
2021/06/10 06:45:17;;;;;;;20.60;13.07;;;;;;;;;;4911651;29;20076;-81
2021/06/10 06:47:42;;;;;;;16.58;12.85;;;;;;;;;;4926510;29;20036;-80
2021/06/10 06:50:08;;;;;;;16.65;12.75;;;;;;;;;;4929107;29;20103;-82
2021/06/10 06:52:33;;;;;;;15.65;12.07;;;;;;;;;;4925010;29;20028;-79
2021/06/10 06:54:58;;;;;;;17.80;13.18;;;;;;;;;;4925736;29;20107;-80
2021/06/10 06:57:23;;;;;;;20.73;13.90;;;;;;;;;;4927838;29;20434;-79
2021/06/10 06:59:49;;;;;;;19.70;14.05;;;;;;;;;;4929159;29;20047;-79
2021/06/10 07:02:14;;;;;;;17.70;13.65;;;;;;;;;;4931697;29;20031;-81
2021/06/10 07:04:39;;;;;;;18.45;13.98;;;;;;;;;;4912605;29;20023;-81
2021/06/10 07:07:04;;;;;;;21.75;14.98;;;;;;;;;;4931599;29;20105;-81
2021/06/10 07:09:31;;;;;;;22.25;15.30;;;;;;;;;;4931277;29;20372;-82
2021/06/10 07:11:57;;;;;;;20.33;15.55;;;;;;;;;;4931345;29;20028;-81
2021/06/10 07:14:22;;;;;;;21.52;15.52;;;;;;;;;;4931687;29;20084;-80
2021/06/10 07:16:47;;;;;;;20.77;14.57;;;;;;;;;;4930454;29;20079;-81
2021/06/10 07:19:12;;;;;;;19.02;14.43;;;;;;;;;;4915796;29;20056;-82
2021/06/10 07:21:45;;;;;;;16.25;13.82;;;;;;;;;;4931926;29;20478;-81
2021/06/10 07:24:10;;;;;;;20.65;15.10;;;;;;;;;;4929625;29;20036;-81
2021/06/10 07:26:36;;;;;;;16.90;14.95;;;;;;;;;;4931195;29;20026;-81
2021/06/10 07:29:01;;;;;;;21.35;14.70;;;;;;;;;;4930954;29;20119;-81
2021/06/10 07:31:27;;;;;;;18.90;14.80;;;;;;;;;;4935189;29;20029;-82
2021/06/10 07:33:52;;;;;;;20.58;15.75;;;;;;;;;;4937009;29;20032;-81
2021/06/10 07:36:17;;;;;;;21.95;14.43;;;;;;;;;;4937613;29;20032;-82
2021/06/10 07:38:42;;;;;;;19.85;14.20;;;;;;;;;;4925001;29;20028;-82
2021/06/10 07:41:08;;;;;;;16.75;13.13;;;;;;;;;;4939876;29;20032;-82
2021/06/10 07:43:33;;;;;;;17.48;13.32;;;;;;;;;;4939937;29;20040;-82
2021/06/10 07:45:58;;;;;;;19.70;14.68;;;;;;;;;;4924799;29;20036;-82
2021/06/10 07:48:24;;;;;;;19.48;14.07;;;;;;;;;;4924622;29;20044;-82
2021/06/10 07:50:50;;;;;;;21.33;14.90;;;;;;;;;;4924358;29;20039;-82
2021/06/10 07:53:16;;;;;;;19.33;14.55;;;;;;;;;;4924952;29;20031;-82
2021/06/10 07:55:42;;;;;;;18.40;14.70;;;;;;;;;;4940736;29;20016;-82
2021/06/10 07:58:07;;;;;;;16.92;13.93;;;;;;;;;;4942075;29;20028;-82
2021/06/10 08:00:33;;;;;;;17.55;13.70;;;;;;;;;;4940877;29;20071;-82
2021/06/10 08:02:58;;;;;;;18.45;14.52;;;;;;;;;;4941138;29;20089;-82
2021/06/10 08:05:24;;;;;;;18.98;13.68;;;;;;;;;;4924625;29;20048;-83
2021/06/10 08:07:52;;;;;;;21.73;14.52;;;;;;;;;;4938699;29;20048;-82
2021/06/10 08:10:17;;;;;;;17.83;13.82;;;;;;;;;;4921366;29;20020;-83
2021/06/10 08:12:42;;;;;;;20.42;15.25;;;;;;;;;;4920356;29;20029;-82
2021/06/10 08:15:08;;;;;;;20.33;15.82;;;;;;;;;;4939942;29;21186;-83
2021/06/10 08:17:35;;;;;;;20.27;14.10;;;;;;;;;;4938393;29;20036;-82
2021/06/10 08:20:01;;;;;;;20.15;14.68;;;;;;;;;;4938478;29;20036;-82
2021/06/10 08:22:26;;;;;;;18.48;13.55;;;;;;;;;;4938728;29;20025;-82
2021/06/10 08:24:51;;;;;;;15.95;12.85;;;;;;;;;;4938100;29;20036;-82
2021/06/10 08:27:16;;;;;;;13.82;11.80;;;;;;;;;;4938444;29;20020;-82
2021/06/10 08:29:42;;;;;;;15.90;12.32;;;;;;;;;;4939373;29;20036;-82
2021/06/10 08:32:07;;;;;;;18.13;13.40;;;;;;;;;;4938021;29;20024;-83
2021/06/10 08:34:32;;;;;;;15.65;12.35;;;;;;;;;;4939041;29;20092;-82
2021/06/10 08:36:58;;;;;;;14.95;12.20;;;;;;;;;;4936035;29;20036;-83
2021/06/10 08:39:23;;;;;;;15.45;12.35;;;;;;;;;;4939145;29;20521;-83
2021/06/10 08:41:49;;;;;;;15.95;13.25;;;;;;;;;;4923315;29;20016;-81
2021/06/10 08:44:14;;;;;;;17.13;13.00;;;;;;;;;;4938741;29;20032;-83
2021/06/10 08:46:39;;;;;;;16.33;13.48;;;;;;;;;;4938393;29;20023;-82
2021/06/10 08:49:06;;;;;;;16.35;12.70;;;;;;;;;;4923366;29;20050;-83
2021/06/10 08:51:31;;;;;;;16.60;13.02;;;;;;;;;;4937907;29;20012;-82
2021/06/10 08:53:57;;;;;;;17.42;11.10;;;;;;;;;;4949618;29;20777;-83
2021/06/10 08:56:26;;;;;;;15.77;11.35;;;;;;;;;;4940446;29;20083;-81
2021/06/10 08:58:52;;;;;;;14.15;11.00;;;;;;;;;;4936322;29;20017;-82
2021/06/10 09:01:17;;;;;;;14.67;11.07;;;;;;;;;;4940318;29;20096;-82
2021/06/10 09:03:42;;;;;;;14.23;9.55;;;;;;;;;;4939602;29;20255;-83
2021/06/10 09:06:12;;;;;;;15.70;9.68;;;;;;;;;;4919154;29;20054;-80
2021/06/10 09:08:38;;;;;;;11.50;9.55;;;;;;;;;;4947926;29;20028;-80
2021/06/10 09:11:17;;;;;;;16.00;8.68;;;;;;;;;;4934060;29;20055;-81
2021/06/10 09:13:47;;;;;;;12.05;9.02;;;;;;;;;;4923773;29;20016;-82
2021/06/10 09:16:32;;;;;;;11.68;7.78;;;;;;;;;;4940514;29;20091;-83
2021/06/10 09:19:03;;;;;;;11.85;8.00;;;;;;;;;;4936734;29;20056;-80
2021/06/10 09:21:28;;;;;;;12.15;8.52;;;;;;;;;;4933045;29;20025;-81
2021/06/10 09:23:54;;;;;;;9.83;7.83;;;;;;;;;;4936657;29;20071;-81
2021/06/10 09:26:19;;;;;;;10.18;8.00;;;;;;;;;;4932619;29;20255;-81
2021/06/10 09:28:50;;;;;;;11.95;8.38;;;;;;;;;;4934428;29;20016;-80
2021/06/10 09:31:29;;;;;;;12.07;8.73;;;;;;;;;;4934579;29;20028;-81
2021/06/10 09:33:54;;;;;;;11.00;8.90;;;;;;;;;;4931988;29;20042;-81
2021/06/10 09:36:23;;;;;;;13.20;9.07;;;;;;;;;;4931777;29;20048;-83
2021/06/10 09:39:03;;;;;;;11.90;9.10;;;;;;;;;;4931462;29;20039;-81
2021/06/10 09:41:28;;;;;;;11.80;8.43;;;;;;;;;;4933700;29;20032;-82
2021/06/10 09:43:55;;;;;;;9.85;8.05;;;;;;;;;;4930734;29;20043;-81
2021/06/10 09:46:20;;;;;;;11.05;7.95;;;;;;;;;;4917018;29;20131;-82
2021/06/10 09:49:02;;;;;;;17.20;8.40;;;;;;;;;;4937067;29;20028;-83
2021/06/10 09:51:27;;;;;;;9.48;7.65;;;;;;;;;;4938829;29;20020;-81
2021/06/10 09:53:52;;;;;;;9.70;7.30;;;;;;;;;;4921418;29;20036;-82
2021/06/10 09:56:17;;;;;;;11.43;7.93;;;;;;;;;;4922769;29;20028;-84
2021/06/10 09:58:43;;;;;;;10.50;8.68;;;;;;;;;;4937005;29;20008;-82
2021/06/10 10:01:20;;;;;;;11.38;7.57;;;;;;;;;;4936583;29;20016;-82
2021/06/10 10:03:47;;;;;;;11.95;7.85;;;;;;;;;;4934635;29;20039;-80
2021/06/10 10:06:18;;;;;;;11.20;8.05;;;;;;;;;;4933497;29;20004;-82
2021/06/10 10:08:45;;;;;;;11.00;7.68;;;;;;;;;;4946783;29;20032;-80
2021/06/10 10:11:11;;;;;;;11.75;8.10;;;;;;;;;;4935285;29;20024;-81
2021/06/10 10:13:37;;;;;;;12.45;7.60;;;;;;;;;;4937135;29;20145;-81
2021/06/10 10:16:02;;;;;;;7.43;6.43;;;;;;;;;;4919779;29;20040;-81
2021/06/10 10:18:28;;;;;;;15.38;8.25;;;;;;;;;;4936042;29;20060;-82
2021/06/10 10:20:57;;;;;;;10.00;7.57;;;;;;;;;;4934331;29;20032;-81
2021/06/10 10:23:22;;;;;;;11.70;8.90;;;;;;;;;;4935697;29;20024;-81
2021/06/10 10:25:47;;;;;;;18.10;9.10;;;;;;;;;;4918574;29;20023;-83
2021/06/10 10:28:14;;;;;;;14.52;11.15;;;;;;;;;;4920203;29;20034;-80
2021/06/10 10:30:43;;;;;;;16.88;12.77;;;;;;;;;;4936199;29;20028;-81
2021/06/10 10:33:41;;;;;;;13.30;10.77;;;;;;;;;;4938605;29;20032;-81
2021/06/10 10:36:06;;;;;;;16.23;12.65;;;;;;;;;;4908011;29;20036;-80
2021/06/10 10:38:35;;;;;;;15.85;13.88;;;;;;;;;;4937913;29;20024;-80
2021/06/10 10:41:02;;;;;;;18.05;13.75;;;;;;;;;;4931515;29;20015;-81
2021/06/10 10:43:28;;;;;;;16.92;12.90;;;;;;;;;;4934437;29;20032;-81
2021/06/10 10:46:06;;;;;;;15.50;12.88;;;;;;;;;;4935307;29;20044;-82
2021/06/10 10:48:32;;;;;;;13.70;10.50;;;;;;;;;;4928757;29;20035;-81
2021/06/10 10:50:57;;;;;;;14.32;11.63;;;;;;;;;;4929278;29;20052;-82
2021/06/10 10:53:25;;;;;;;13.52;11.18;;;;;;;;;;4928063;29;20016;-82
2021/06/10 10:56:10;;;;;;;13.82;11.35;;;;;;;;;;4929346;29;20108;-79
2021/06/10 10:58:35;;;;;;;19.98;11.23;;;;;;;;;;4930226;29;20024;-79
2021/06/10 11:01:01;;;;;;;15.13;11.50;;;;;;;;;;4928893;29;20051;-79
2021/06/10 11:03:32;;;;;;;13.48;12.07;;;;;;;;;;4925443;29;20083;-79
2021/06/10 11:05:59;;;;;;;16.65;12.88;;;;;;;;;;4919828;29;20028;-79
2021/06/10 11:08:44;;;;;;;18.33;12.80;;;;;;;;;;4920465;29;20083;-79
2021/06/10 11:11:09;;;;;;;15.75;13.05;;;;;;;;;;4934523;29;20020;-79
2021/06/10 11:13:45;;;;;;;17.10;12.50;;;;;;;;;;4928636;29;20349;-80
2021/06/10 11:16:11;;;;;;;16.75;13.65;;;;;;;;;;4927222;29;20012;-80
2021/06/10 11:18:42;;;;;;;16.00;11.77;;;;;;;;;;4929417;29;20036;-81
2021/06/10 11:21:12;;;;;;;16.88;11.93;;;;;;;;;;4925925;29;20038;-79
2021/06/10 11:23:37;;;;;;;15.05;11.45;;;;;;;;;;4927531;29;20024;-80
2021/06/10 11:26:04;;;;;;;13.40;11.35;;;;;;;;;;4926061;29;20036;-80
2021/06/10 11:28:35;;;;;;;12.60;10.10;;;;;;;;;;4927364;29;20031;-80
2021/06/10 11:31:20;;;;;;;13.77;10.25;;;;;;;;;;4927425;29;20024;-79
2021/06/10 11:33:45;;;;;;;12.52;10.23;;;;;;;;;;4927563;29;20016;-80
2021/06/10 11:36:11;;;;;;;14.45;10.48;;;;;;;;;;4925538;29;20164;-80
2021/06/10 11:38:36;;;;;;;18.40;11.07;;;;;;;;;;4926806;29;20012;-80
2021/06/10 11:41:06;;;;;;;14.05;11.13;;;;;;;;;;4927391;29;20046;-80
2021/06/10 11:43:33;;;;;;;13.63;10.55;;;;;;;;;;4928267;29;20020;-80
2021/06/10 11:46:00;;;;;;;15.63;11.57;;;;;;;;;;4928631;29;20024;-80
2021/06/10 11:48:45;;;;;;;13.18;11.00;;;;;;;;;;4926486;29;20016;-80
2021/06/10 11:51:16;;;;;;;18.20;12.15;;;;;;;;;;4924148;29;20035;-80
2021/06/10 11:53:42;;;;;;;17.25;13.00;;;;;;;;;;4920154;29;20016;-80
2021/06/10 11:56:07;;;;;;;15.65;13.35;;;;;;;;;;4924001;29;20023;-80
2021/06/10 11:58:32;;;;;;;14.35;12.55;;;;;;;;;;4921653;29;20016;-80
2021/06/10 12:01:05;;;;;;;14.88;13.25;;;;;;;;;;4922654;29;20020;-80
2021/06/10 12:03:36;;;;;;;16.05;12.15;;;;;;;;;;4926509;29;20034;-80
2021/06/10 12:06:02;;;;;;;13.45;11.13;;;;;;;;;;4925373;29;20016;-80
2021/06/10 12:08:31;;;;;;;15.50;11.60;;;;;;;;;;4926719;29;20088;-80
2021/06/10 12:11:01;;;;;;;17.23;11.77;;;;;;;;;;4928642;29;20012;-81
2021/06/10 12:13:31;;;;;;;16.65;12.20;;;;;;;;;;4926210;29;20043;-80
2021/06/10 12:15:59;;;;;;;14.77;11.35;;;;;;;;;;4926458;29;20164;-80
2021/06/10 12:18:24;;;;;;;14.48;11.32;;;;;;;;;;4925320;29;20068;-80
2021/06/10 12:20:51;;;;;;;15.07;11.40;;;;;;;;;;4923238;29;20100;-80
2021/06/10 12:23:18;;;;;;;14.73;9.98;;;;;;;;;;4929009;29;20024;-80
2021/06/10 12:25:50;;;;;;;11.20;8.77;;;;;;;;;;4927434;29;20060;-80
2021/06/10 12:28:29;;;;;;;14.73;11.00;;;;;;;;;;4931427;29;20019;-80
2021/06/10 12:30:58;;;;;;;14.23;10.15;;;;;;;;;;4929292;29;20028;-80
2021/06/10 12:33:23;;;;;;;14.43;11.15;;;;;;;;;;4931118;29;20438;-79
2021/06/10 12:35:52;;;;;;;12.85;10.77;;;;;;;;;;4930482;29;20101;-80
2021/06/10 12:38:18;;;;;;;12.93;10.60;;;;;;;;;;4931727;29;20028;-80
2021/06/10 12:40:45;;;;;;;14.90;11.48;;;;;;;;;;4929711;29;20039;-80
2021/06/10 12:43:22;;;;;;;16.05;12.45;;;;;;;;;;4931752;29;20046;-80
2021/06/10 12:45:48;;;;;;;14.95;11.80;;;;;;;;;;4931544;29;20051;-80
2021/06/10 12:48:23;;;;;;;17.08;10.90;;;;;;;;;;4931205;29;20031;-79
2021/06/10 12:50:48;;;;;;;13.65;11.40;;;;;;;;;;4932777;29;20031;-80
2021/06/10 12:53:18;;;;;;;13.50;10.68;;;;;;;;;;4930985;29;20028;-80
2021/06/10 12:55:44;;;;;;;11.65;9.77;;;;;;;;;;4933518;29;20024;-80
2021/06/10 12:58:13;;;;;;;11.40;9.77;;;;;;;;;;4919983;29;20051;-80
2021/06/10 13:00:38;;;;;;;15.48;11.27;;;;;;;;;;4930978;29;20024;-81
2021/06/10 13:03:09;;;;;;;13.95;11.18;;;;;;;;;;4933260;29;20027;-80
2021/06/10 13:05:35;;;;;;;14.55;11.82;;;;;;;;;;4924985;29;20013;-81
2021/06/10 13:08:01;;;;;;;12.07;9.05;;;;;;;;;;4932555;29;20028;-80
2021/06/10 13:10:32;;;;;;;13.07;9.05;;;;;;;;;;4931156;29;20016;-80
2021/06/10 13:12:58;;;;;;;13.13;9.10;;;;;;;;;;4947034;29;20016;-80
2021/06/10 13:15:24;;;;;;;15.05;10.18;;;;;;;;;;4933483;29;20047;-80
2021/06/10 13:18:06;;;;;;;13.93;9.70;;;;;;;;;;4933536;29;20060;-81
2021/06/10 13:20:51;;;;;;;12.15;8.95;;;;;;;;;;4930914;29;20052;-81
2021/06/10 13:23:21;;;;;;;12.00;9.88;;;;;;;;;;4932914;29;20032;-80
2021/06/10 13:26:00;;;;;;;11.50;9.00;;;;;;;;;;4933071;29;20035;-80
2021/06/10 13:28:26;;;;;;;14.75;9.82;;;;;;;;;;4933052;29;20039;-81
2021/06/10 13:31:08;;;;;;;13.27;8.98;;;;;;;;;;4933277;29;20028;-80
2021/06/10 13:33:33;;;;;;;10.05;8.68;;;;;;;;;;4932412;29;20019;-80
2021/06/10 13:35:59;;;;;;;10.80;8.50;;;;;;;;;;4933157;29;20119;-81
2021/06/10 13:38:24;;;;;;;9.68;7.10;;;;;;;;;;4936286;29;20024;-82
2021/06/10 13:40:49;;;;;;;10.03;7.63;;;;;;;;;;4949793;29;20069;-81
2021/06/10 13:43:15;;;;;;;11.07;8.43;;;;;;;;;;4933635;29;20313;-82
2021/06/10 13:45:40;;;;;;;11.55;8.43;;;;;;;;;;4936215;29;20047;-80
2021/06/10 13:48:05;;;;;;;19.25;8.00;;;;;;;;;;4935778;29;20016;-80
2021/06/10 13:50:31;;;;;;;11.98;6.90;;;;;;;;;;4933469;29;20028;-81
2021/06/10 13:52:57;;;;;;;12.15;8.18;;;;;;;;;;4931168;29;20048;-80
2021/06/10 13:55:22;;;;;;;12.05;7.13;;;;;;;;;;4929207;29;20024;-80
2021/06/10 13:57:47;;;;;;;11.25;9.10;;;;;;;;;;4929772;29;20072;-79
2021/06/10 14:00:18;;;;;;;9.48;8.32;;;;;;;;;;4934479;29;20024;-80
2021/06/10 14:02:43;;;;;;;10.25;7.00;;;;;;;;;;4934968;29;20057;-81
2021/06/10 14:05:08;;;;;;;8.87;6.60;;;;;;;;;;4937608;29;20036;-81
2021/06/10 14:07:34;;;;;;;12.75;7.30;;;;;;;;;;4931449;29;20270;-80
2021/06/10 14:10:00;;;;;;;12.52;6.78;;;;;;;;;;4931857;29;20024;-80
2021/06/10 14:12:25;;;;;;;7.50;6.20;;;;;;;;;;4931421;29;20092;-80
2021/06/10 14:14:50;;;;;;;10.07;6.90;;;;;;;;;;4932214;29;20040;-80
2021/06/10 14:17:16;;;;;;;13.07;8.15;;;;;;;;;;4933274;29;20020;-81
2021/06/10 14:19:41;;;;;;;8.63;6.80;;;;;;;;;;4932812;29;20048;-80
2021/06/10 14:22:09;;;;;;;9.45;7.70;;;;;;;;;;4933706;29;20028;-81
2021/06/10 14:24:34;;;;;;;11.20;6.13;;;;;;;;;;4936105;29;20028;-83
2021/06/10 14:27:00;;;;;;;9.10;6.80;;;;;;;;;;4936512;29;20043;-83